Aérodrome :
LOGIN :

S'inscrire | Disclaimer

   EN    FR    IT 

 










Légende :    VFR   VFR Marginal   IFR   IFR Intensif   IFR Très Intensif
Visi : 
Plafond : 
>= 8 km
>= 3000ft
5 à 8 km
1000 à 3000 ft
1500m à 5 km
500 à 1000 ft
800 à 1500m
200 à 500 ft
< 800m
< 200 ft
Symboles :   Orages  Brouillard  Fortes neiges  Fortes précipitations  Vent > 20 kt
SIGMETs :   Divers  Orages  Givrage  Turbulence  Onde Orograph.  Cendres Volcan.







- Altitude de l'aérodrome : 26 ft
- Code IATA : BIA
- Voir les cartes d'approche


LFKB - Bastia

DERNIER METAR :
  • 151500Z AUTO 12006KT 9999 FEW023 21/16 Q1015 NOSIG

METARs EXPIRÉS :
  • 151430Z AUTO 12006KT CAVOK 21/16 Q1015 NOSIG
  • 151400Z AUTO 11007KT CAVOK 21/17 Q1015 NOSIG
  • 151330Z AUTO 11011KT 9999 FEW030 SCT210 22/17 Q1015 NOSIG
  • 151300Z AUTO 12011KT 9999 FEW030 23/17 Q1015 NOSIG
  • 151230Z AUTO 11011KT 090V150 CAVOK 22/16 Q1015 NOSIG

TAF TAF LFKB
Valide du 15 à 15h jusqu'au 16 à 15h UTC


151400Z 1515/1615 12010KT 9999 FEW025 BKN200 TX21/1612Z TN15/1603Z
BECMG 1518/1520 VRB05KT 9999 SCT020 BKN033
TEMPO 1523/1615 7000 RA BKN016 OVC030
PROB40
TEMPO 1602/1606 4000 TSRA BKN013 SCT025CB BKN025
ATIS : +33 4 95 59 19 40
Pas de NOTAMs connus pour ce terrain.
1 SIGMET publié pour la FIR Marseille (LFMM) :
 
Turbulence forte
LFMM SIGMET 13 VALID 151400/151800 LFPW
LFMM MARSEILLE FIR/UIR SEV TURB FCST WI N4400 E00245 - N4600 E00300 - N4600 E00315 - N4345 E00415 - N4345 E00700 - N4245 E00700 - N4330 E00300 - N4400 E00245 SFC/FL070 STNR NC=



MET'MAP, la Météo Aéronautique d'un coup d'oeil ! - Copyright ORBIFLY Décembre 2007 - Disclaimer

ORBIFLY MET'MAP TEAM :

Programmation & Développement : Alexandra Zaïnal
Conception & Développement : Baudouin d'Aumeries
Co-Programmation & Développement : Marc-Olivier Méhu
Soutien technique & logistique : Manuel Goepfert

Contact : metmap@orbifly.com




SOURCES & CREDITS :

   NOAA